Time;durP1;ratioP1;P1;durP2;ratioP2;P2;SDS_P1;SDS_P2;PMS_P1;PMS_P2;Temp;Humidity;BMP_temperature;BMP_pressure;BME280_temperature;BME280_humidity;BME280_pressure;Samples;Min_cycle;Max_cycle;Signal;HPM_P1;HPM_P2
2021/06/08 00:00:22;;;;;;;6.13;5.30;;;14.30;85.30;;;;;;4977793;28;20348;-84
2021/06/08 00:03:10;;;;;;;5.90;5.30;;;14.30;85.30;;;;;;4979779;28;20347;-82
2021/06/08 00:05:38;;;;;;;5.97;5.27;;;14.20;85.40;;;;;;4977311;28;20531;-82
2021/06/08 00:08:07;;;;;;;7.23;4.97;;;14.10;85.50;;;;;;4976799;28;20204;-82
2021/06/08 00:10:35;;;;;;;10.27;5.27;;;14.00;85.60;;;;;;4978191;28;20208;-83
2021/06/08 00:13:03;;;;;;;5.70;5.17;;;14.00;86.20;;;;;;4986712;28;20219;-83
2021/06/08 00:15:33;;;;;;;7.97;5.03;;;14.10;86.10;;;;;;4988188;28;20207;-82
2021/06/08 00:18:01;;;;;;;5.33;4.83;;;14.10;86.30;;;;;;4972819;28;20199;-83
2021/06/08 00:20:30;;;;;;;7.20;5.33;;;14.00;86.60;;;;;;4984093;28;20277;-85
2021/06/08 00:22:58;;;;;;;5.67;5.13;;;14.00;86.60;;;;;;4979876;28;21162;-84
2021/06/08 00:25:26;;;;;;;5.77;5.03;;;13.90;87.50;;;;;;4979329;28;20635;-81
2021/06/08 00:27:56;;;;;;;5.67;5.17;;;13.90;87.20;;;;;;4979240;28;20212;-82
2021/06/08 00:30:26;;;;;;;7.63;5.33;;;13.80;87.50;;;;;;4981104;28;20204;-83
2021/06/08 00:32:55;;;;;;;5.60;5.10;;;13.70;87.70;;;;;;4989260;28;21639;-83
2021/06/08 00:35:25;;;;;;;6.50;5.23;;;13.70;88.10;;;;;;4986731;28;21524;-82
2021/06/08 00:37:54;;;;;;;7.63;5.63;;;13.70;89.00;;;;;;4981181;28;20219;-82
2021/06/08 00:40:25;;;;;;;5.97;5.10;;;13.70;88.90;;;;;;4979246;28;20456;-82
2021/06/08 00:42:54;;;;;;;5.77;5.17;;;13.60;88.60;;;;;;4979089;28;20319;-83
2021/06/08 00:45:23;;;;;;;5.87;5.20;;;13.60;88.90;;;;;;4984776;28;20617;-82
2021/06/08 00:47:51;;;;;;;6.10;5.50;;;13.40;89.30;;;;;;4983317;28;20219;-84
2021/06/08 00:50:21;;;;;;;8.80;5.40;;;13.40;89.40;;;;;;4978252;28;20200;-82
2021/06/08 00:52:52;;;;;;;5.90;5.20;;;13.30;89.40;;;;;;4980862;28;20246;-82
2021/06/08 00:55:20;;;;;;;7.77;5.87;;;13.20;89.30;;;;;;4976126;28;20811;-80
2021/06/08 00:57:49;;;;;;;5.90;5.40;;;13.10;89.90;;;;;;4981697;28;20223;-81
2021/06/08 01:00:19;;;;;;;6.50;5.50;;;13.10;90.40;;;;;;4978207;28;20230;-82
2021/06/08 01:02:47;;;;;;;6.90;5.80;;;13.10;90.70;;;;;;4981267;28;20203;-82
2021/06/08 01:05:15;;;;;;;6.77;5.60;;;13.10;90.60;;;;;;4983763;28;20212;-82
2021/06/08 01:07:45;;;;;;;6.03;5.20;;;13.00;90.60;;;;;;4983610;28;20686;-82
2021/06/08 01:10:15;;;;;;;6.43;5.83;;;13.00;90.80;;;;;;4976813;28;20907;-83
2021/06/08 01:12:43;;;;;;;12.17;6.83;;;12.90;90.60;;;;;;4983068;28;20659;-81
2021/06/08 01:15:11;;;;;;;8.33;6.17;;;12.80;91.10;;;;;;4981997;28;20207;-84
2021/06/08 01:17:40;;;;;;;7.50;5.80;;;12.80;91.40;;;;;;4983518;28;20259;-83
2021/06/08 01:20:10;;;;;;;8.33;5.77;;;12.80;91.50;;;;;;4977798;28;20210;-84
2021/06/08 01:22:39;;;;;;;11.23;6.13;;;12.80;91.90;;;;;;4981314;28;20212;-83
2021/06/08 01:25:08;;;;;;;9.00;6.13;;;12.70;91.60;;;;;;4978270;28;20296;-82
2021/06/08 01:27:37;;;;;;;7.20;6.13;;;12.70;91.60;;;;;;4982691;28;20231;-81
2021/06/08 01:30:07;;;;;;;7.40;6.00;;;12.80;92.00;;;;;;4979165;28;20218;-83
2021/06/08 01:32:36;;;;;;;8.23;5.73;;;12.70;92.40;;;;;;4975353;28;20216;-84
2021/06/08 01:35:05;;;;;;;8.27;6.00;;;12.80;93.20;;;;;;4980454;28;20223;-85
2021/06/08 01:37:34;;;;;;;7.83;6.10;;;12.60;92.20;;;;;;4977176;28;20213;-83
2021/06/08 01:40:06;;;;;;;10.70;6.33;;;12.60;92.20;;;;;;4980740;28;20207;-83
2021/06/08 01:42:36;;;;;;;8.90;5.67;;;12.60;92.60;;;;;;4982348;28;20223;-83
2021/06/08 01:45:06;;;;;;;8.53;6.03;;;12.60;93.10;;;;;;4975730;28;20214;-83
2021/06/08 01:47:34;;;;;;;9.87;6.07;;;12.70;92.90;;;;;;4982085;28;20579;-82
2021/06/08 01:50:02;;;;;;;6.47;5.70;;;12.70;92.80;;;;;;4982800;28;20207;-85
2021/06/08 01:52:38;;;;;;;7.60;6.20;;;12.70;93.10;;;;;;4983208;28;20219;-82
2021/06/08 01:55:15;;;;;;;6.73;6.07;;;12.60;92.90;;;;;;4985249;28;20653;-82
2021/06/08 01:57:47;;;;;;;6.50;5.80;;;12.60;93.10;;;;;;4989020;28;20533;-86
2021/06/08 02:00:20;;;;;;;9.03;6.30;;;12.50;92.90;;;;;;4988901;28;20492;-83
2021/06/08 02:02:54;;;;;;;6.93;5.93;;;12.50;93.40;;;;;;4995234;28;20219;-81
2021/06/08 02:05:29;;;;;;;10.20;6.03;;;12.40;93.70;;;;;;4989404;28;20231;-83
2021/06/08 02:08:06;;;;;;;8.10;6.03;;;12.40;94.30;;;;;;4986438;28;20259;-81
2021/06/08 02:10:47;;;;;;;10.53;6.57;;;12.40;94.50;;;;;;5003920;28;20204;-81
2021/06/08 02:13:24;;;;;;;8.93;6.40;;;12.40;94.40;;;;;;4999182;28;20427;-84
2021/06/08 02:16:01;;;;;;;9.13;6.30;;;12.30;94.50;;;;;;5006147;28;20238;-83
2021/06/08 02:18:29;;;;;;;7.73;5.97;;;12.30;94.40;;;;;;5006528;28;20215;-83
2021/06/08 02:21:01;;;;;;;6.90;6.20;;;12.20;94.70;;;;;;5008798;28;20478;-83
2021/06/08 02:23:30;;;;;;;7.63;6.17;;;12.20;95.30;;;;;;5007231;28;20451;-83
2021/06/08 02:26:01;;;;;;;7.63;6.50;;;12.10;95.50;;;;;;5006520;28;20383;-83
2021/06/08 02:28:32;;;;;;;10.07;6.10;;;12.10;95.70;;;;;;5008466;28;20212;-82
2021/06/08 02:31:03;;;;;;;8.53;6.63;;;12.20;96.40;;;;;;5008134;28;20200;-81
2021/06/08 02:33:32;;;;;;;10.00;6.93;;;12.10;96.10;;;;;;4999483;28;20251;-82
2021/06/08 02:36:01;;;;;;;10.40;7.00;;;12.20;96.50;;;;;;5005377;28;20215;-82
2021/06/08 02:38:32;;;;;;;7.93;6.77;;;12.20;96.30;;;;;;4997276;28;21151;-81
2021/06/08 02:41:05;;;;;;;8.17;6.53;;;12.30;96.00;;;;;;4988042;28;20224;-83
2021/06/08 02:43:36;;;;;;;7.80;6.70;;;12.30;96.10;;;;;;4983002;28;20672;-81
2021/06/08 02:46:06;;;;;;;12.77;7.60;;;12.30;96.60;;;;;;4988263;28;21022;-82
2021/06/08 02:48:36;;;;;;;10.50;7.00;;;12.40;96.40;;;;;;4992959;28;20211;-83
2021/06/08 02:51:06;;;;;;;9.93;6.63;;;12.50;96.00;;;;;;4990027;28;20239;-82
2021/06/08 02:53:35;;;;;;;9.53;7.40;;;12.50;95.90;;;;;;4986052;28;20322;-83
2021/06/08 02:56:06;;;;;;;10.00;7.80;;;12.70;95.90;;;;;;4987925;28;20212;-83
2021/06/08 02:58:35;;;;;;;7.40;6.67;;;12.60;95.30;;;;;;4983902;28;20218;-81
2021/06/08 03:01:05;;;;;;;10.90;6.83;;;12.80;94.90;;;;;;4991811;28;20277;-82
2021/06/08 03:03:38;;;;;;;9.80;6.77;;;12.90;94.80;;;;;;4986227;28;20709;-83
2021/06/08 03:06:09;;;;;;;12.67;7.20;;;12.90;94.30;;;;;;4989035;28;20222;-83
2021/06/08 03:08:42;;;;;;;10.20;7.10;;;13.00;94.30;;;;;;4986168;28;20223;-83
2021/06/08 03:11:19;;;;;;;9.20;6.67;;;13.10;93.80;;;;;;4988670;28;20338;-84
2021/06/08 03:13:49;;;;;;;10.90;6.43;;;13.10;93.90;;;;;;4987812;28;20211;-83
2021/06/08 03:16:18;;;;;;;7.17;6.43;;;13.20;93.90;;;;;;4981216;28;20679;-86
2021/06/08 03:18:48;;;;;;;12.57;7.47;;;13.40;94.00;;;;;;4985892;28;20702;-84
2021/06/08 03:21:19;;;;;;;11.77;6.97;;;13.40;93.80;;;;;;4986016;28;20790;-83
2021/06/08 03:23:51;;;;;;;8.97;7.23;;;13.60;93.20;;;;;;4987087;28;20253;-83
2021/06/08 03:26:22;;;;;;;9.73;7.47;;;13.60;92.90;;;;;;4984197;28;20568;-83
2021/06/08 03:28:51;;;;;;;8.57;7.03;;;13.80;92.80;;;;;;4981822;28;20680;-84
2021/06/08 03:31:21;;;;;;;8.47;7.27;;;13.80;92.50;;;;;;4990234;28;20293;-82
2021/06/08 03:33:51;;;;;;;9.03;7.57;;;14.00;92.50;;;;;;4986292;28;20537;-83
2021/06/08 03:36:19;;;;;;;8.80;7.27;;;14.20;92.40;;;;;;4985721;28;20208;-83
2021/06/08 03:38:49;;;;;;;10.13;7.57;;;14.20;92.00;;;;;;4983779;28;20560;-82
2021/06/08 03:41:18;;;;;;;9.57;8.20;;;14.40;91.50;;;;;;4977970;28;20445;-82
2021/06/08 03:43:47;;;;;;;12.10;7.97;;;14.80;90.40;;;;;;4982784;28;20587;-82
2021/06/08 03:46:16;;;;;;;11.50;8.03;;;15.10;89.90;;;;;;4976850;28;20208;-83
2021/06/08 03:48:45;;;;;;;9.20;7.07;;;15.30;88.70;;;;;;4981948;28;20235;-82
2021/06/08 03:51:13;;;;;;;7.87;7.07;;;15.50;88.70;;;;;;4983084;28;20692;-82
2021/06/08 03:53:41;;;;;;;10.40;7.77;;;15.60;88.90;;;;;;4983276;28;20588;-82
2021/06/08 03:56:13;;;;;;;10.50;8.20;;;15.70;89.10;;;;;;4980962;28;20681;-83
2021/06/08 03:58:41;;;;;;;9.67;7.90;;;15.80;88.50;;;;;;4988070;28;20536;-84
2021/06/08 04:01:11;;;;;;;10.83;8.40;;;16.00;87.80;;;;;;4994321;28;20231;-84
2021/06/08 04:03:40;;;;;;;15.23;8.03;;;16.10;87.60;;;;;;4979099;28;20200;-83
2021/06/08 04:06:10;;;;;;;10.17;8.10;;;16.30;87.70;;;;;;4981778;28;20295;-82
2021/06/08 04:08:38;;;;;;;9.23;8.33;;;16.40;87.60;;;;;;4982619;28;20238;-84
2021/06/08 04:11:06;;;;;;;10.60;9.07;;;16.50;87.60;;;;;;4989569;28;20207;-83
2021/06/08 04:13:34;;;;;;;9.73;7.50;;;16.60;87.40;;;;;;4990672;28;20251;-84
2021/06/08 04:16:04;;;;;;;10.23;8.07;;;16.60;87.50;;;;;;4982841;28;20212;-85
2021/06/08 04:18:34;;;;;;;9.40;8.40;;;16.70;87.40;;;;;;4982206;28;20746;-85
2021/06/08 04:21:03;;;;;;;9.30;8.30;;;16.80;87.20;;;;;;4986370;28;20214;-84
2021/06/08 04:23:33;;;;;;;12.53;8.50;;;17.00;86.40;;;;;;4981462;28;20436;-84
2021/06/08 04:26:01;;;;;;;8.57;7.67;;;17.10;86.50;;;;;;4987551;28;20754;-84
2021/06/08 04:28:28;;;;;;;11.57;8.13;;;17.10;86.30;;;;;;4987964;28;20589;-83
2021/06/08 04:30:57;;;;;;;10.13;8.40;;;17.20;86.40;;;;;;4987757;28;20211;-81
2021/06/08 04:33:27;;;;;;;10.40;7.97;;;17.30;86.40;;;;;;4984993;28;20222;-83
2021/06/08 04:35:57;;;;;;;13.60;8.00;;;17.50;86.20;;;;;;4981703;28;20219;-82
2021/06/08 04:38:25;;;;;;;9.00;8.10;;;17.50;86.40;;;;;;4986971;28;20689;-84
2021/06/08 04:40:53;;;;;;;9.37;7.70;;;17.70;86.00;;;;;;4980033;28;20208;-83
2021/06/08 04:43:23;;;;;;;9.03;7.70;;;17.80;85.70;;;;;;4986794;28;20223;-84
2021/06/08 04:45:51;;;;;;;11.50;8.00;;;17.90;85.60;;;;;;4976180;28;20216;-84
2021/06/08 04:48:22;;;;;;;10.90;7.70;;;18.00;85.30;;;;;;4973532;28;20812;-83
2021/06/08 04:50:50;;;;;;;9.90;7.70;;;18.00;85.40;;;;;;4978141;28;20652;-84
2021/06/08 04:53:20;;;;;;;11.47;7.63;;;18.10;85.40;;;;;;4976831;28;20200;-85
2021/06/08 04:55:48;;;;;;;8.97;7.40;;;18.20;85.30;;;;;;4971089;28;20207;-84
2021/06/08 04:58:17;;;;;;;8.83;7.40;;;18.30;85.20;;;;;;4974854;28;20205;-84
2021/06/08 05:00:54;;;;;;;8.33;7.53;;;18.40;85.10;;;;;;4972924;28;20215;-83
2021/06/08 05:03:27;;;;;;;9.57;7.40;;;18.40;85.00;;;;;;4979804;28;20517;-84
2021/06/08 05:05:58;;;;;;;8.70;7.43;;;18.40;84.90;;;;;;4972103;28;20388;-84
2021/06/08 05:08:35;;;;;;;8.73;7.70;;;18.40;85.20;;;;;;4960034;28;20240;-85
2021/06/08 05:11:11;;;;;;;8.47;7.50;;;18.70;85.20;;;;;;4971110;28;20322;-84
2021/06/08 05:13:42;;;;;;;8.20;7.03;;;18.80;84.60;;;;;;4976689;28;20207;-85
2021/06/08 05:16:10;;;;;;;8.33;7.43;;;18.90;84.70;;;;;;4971535;28;20216;-83
2021/06/08 05:18:41;;;;;;;9.47;7.57;;;19.00;84.50;;;;;;4975311;28;20239;-85
2021/06/08 05:21:11;;;;;;;10.87;8.20;;;19.00;84.50;;;;;;4962731;28;20355;-83
2021/06/08 05:23:41;;;;;;;8.73;7.67;;;19.30;84.40;;;;;;4966444;28;20552;-84
2021/06/08 05:26:11;;;;;;;8.33;7.30;;;19.40;84.10;;;;;;4965737;28;20305;-85
2021/06/08 05:28:40;;;;;;;7.53;6.70;;;19.50;84.10;;;;;;4965762;28;20902;-84
2021/06/08 05:31:09;;;;;;;8.73;7.80;;;19.60;84.10;;;;;;4976764;28;20320;-84
2021/06/08 05:33:37;;;;;;;7.90;7.10;;;19.70;83.70;;;;;;4977241;28;20222;-81
2021/06/08 05:36:05;;;;;;;8.83;6.87;;;19.80;83.70;;;;;;4971999;28;20390;-84
2021/06/08 05:38:35;;;;;;;9.30;7.53;;;19.80;83.50;;;;;;4964224;28;20297;-83
2021/06/08 05:41:06;;;;;;;7.77;7.00;;;19.90;83.60;;;;;;4968280;28;20196;-84
2021/06/08 05:43:34;;;;;;;8.10;7.37;;;20.00;83.70;;;;;;4981083;28;20212;-83
2021/06/08 05:46:03;;;;;;;9.90;6.93;;;20.10;83.50;;;;;;4970805;28;20571;-82
2021/06/08 05:48:31;;;;;;;10.20;7.60;;;20.20;83.70;;;;;;4954289;28;20235;-83
2021/06/08 05:51:02;;;;;;;7.70;6.83;;;20.30;83.50;;;;;;4962630;28;20208;-87
2021/06/08 05:53:31;;;;;;;10.13;7.00;;;20.50;83.60;;;;;;4975202;28;20203;-85
2021/06/08 05:56:00;;;;;;;8.20;7.40;;;20.60;83.40;;;;;;4973829;28;20216;-84
2021/06/08 05:58:31;;;;;;;9.27;7.30;;;20.60;83.30;;;;;;4980927;28;20311;-84
2021/06/08 06:01:01;;;;;;;8.50;6.93;;;20.50;83.40;;;;;;4984584;28;20223;-84
2021/06/08 06:03:30;;;;;;;9.07;7.63;;;20.50;83.60;;;;;;4984351;28;20287;-85
2021/06/08 06:06:00;;;;;;;10.27;7.57;;;20.60;83.50;;;;;;4984267;28;20228;-84
2021/06/08 06:08:28;;;;;;;10.60;7.23;;;20.60;83.30;;;;;;4977690;28;20267;-84
2021/06/08 06:10:58;;;;;;;8.47;7.20;;;20.70;83.40;;;;;;4984335;28;20204;-84
2021/06/08 06:13:33;;;;;;;8.03;7.10;;;20.60;83.20;;;;;;4982488;28;20256;-84
2021/06/08 06:16:02;;;;;;;8.60;7.23;;;20.60;83.10;;;;;;4969923;28;20207;-83
2021/06/08 06:18:30;;;;;;;10.13;6.90;;;20.70;83.30;;;;;;4968254;28;20765;-85
2021/06/08 06:20:59;;;;;;;9.50;7.00;;;20.90;83.40;;;;;;4960597;28;20212;-84
2021/06/08 06:23:27;;;;;;;7.70;6.90;;;21.10;83.20;;;;;;4962193;28;20239;-84
2021/06/08 06:25:58;;;;;;;11.77;8.10;;;21.10;82.80;;;;;;4971032;28;20293;-85
2021/06/08 06:28:26;;;;;;;11.00;6.70;;;21.20;82.80;;;;;;4976742;28;20732;-83
2021/06/08 06:30:57;;;;;;;10.03;7.00;;;21.30;82.90;;;;;;4978410;28;20222;-83
2021/06/08 06:33:26;;;;;;;8.40;6.40;;;21.50;82.90;;;;;;4989756;28;20188;-86
2021/06/08 06:35:58;;;;;;;11.75;7.00;;;21.70;82.60;;;;;;4980397;28;20206;-83
2021/06/08 06:38:27;;;;;;;8.32;6.53;;;21.70;82.40;;;;;;4976220;28;20306;-84
2021/06/08 06:40:58;;;;;;;7.97;7.25;;;21.80;82.30;;;;;;4971446;28;20230;-86
2021/06/08 06:43:27;;;;;;;9.23;6.63;;;22.00;82.10;;;;;;4962648;28;20529;-84
2021/06/08 06:45:57;;;;;;;7.05;6.38;;;22.30;82.30;;;;;;4986299;28;20440;-83
2021/06/08 06:48:25;;;;;;;9.60;7.50;;;22.40;82.20;;;;;;4968835;28;20224;-83
2021/06/08 06:50:54;;;;;;;10.23;7.25;;;22.40;81.60;;;;;;4965805;28;20222;-85
2021/06/08 06:53:23;;;;;;;8.50;7.00;;;22.50;81.50;;;;;;4954532;28;20210;-84
2021/06/08 06:55:52;;;;;;;9.07;7.40;;;22.50;81.70;;;;;;4963398;28;20216;-83
2021/06/08 06:58:21;;;;;;;9.93;7.00;;;22.60;81.60;;;;;;4952892;28;20578;-83
2021/06/08 07:00:52;;;;;;;7.55;6.70;;;22.70;81.70;;;;;;4965265;28;20200;-84
2021/06/08 07:03:29;;;;;;;9.57;7.50;;;22.80;81.40;;;;;;4962627;28;20384;-84
2021/06/08 07:05:59;;;;;;;12.15;7.35;;;23.10;81.00;;;;;;4963245;28;20207;-83
2021/06/08 07:08:30;;;;;;;10.20;7.00;;;23.20;81.20;;;;;;4959112;28;20240;-85
2021/06/08 07:10:58;;;;;;;9.23;6.50;;;23.30;80.80;;;;;;4954236;28;20651;-84
2021/06/08 07:13:27;;;;;;;8.07;7.32;;;23.40;81.20;;;;;;4958368;28;20258;-82
2021/06/08 07:15:55;;;;;;;8.88;6.57;;;23.50;80.50;;;;;;4961864;28;20605;-81
2021/06/08 07:18:26;;;;;;;11.38;6.70;;;23.70;80.50;;;;;;4948769;28;20237;-79
2021/06/08 07:20:54;;;;;;;14.50;7.18;;;23.70;80.50;;;;;;4953779;28;20327;-79
2021/06/08 07:23:23;;;;;;;7.57;6.78;;;23.60;80.40;;;;;;4960390;28;20891;-78
2021/06/08 07:25:52;;;;;;;7.00;6.30;;;23.80;80.00;;;;;;4948542;28;20211;-80
2021/06/08 07:28:21;;;;;;;7.95;6.63;;;23.90;80.00;;;;;;4947742;28;20243;-80
2021/06/08 07:30:50;;;;;;;9.52;6.70;;;24.00;80.20;;;;;;4947371;28;20348;-79
2021/06/08 07:33:27;;;;;;;7.80;6.47;;;24.10;80.00;;;;;;4956193;28;20200;-76
2021/06/08 07:36:03;;;;;;;9.07;6.32;;;24.00;79.80;;;;;;4947723;28;20322;-79
2021/06/08 07:38:38;;;;;;;9.25;6.28;;;23.90;79.70;;;;;;4947484;28;21001;-78
2021/06/08 07:41:11;;;;;;;9.50;6.13;;;24.00;79.80;;;;;;4952338;28;20633;-80
2021/06/08 07:43:43;;;;;;;9.38;6.30;;;24.10;80.10;;;;;;4950671;28;20854;-80
2021/06/08 07:46:15;;;;;;;6.50;5.10;;;24.20;79.40;;;;;;4952422;28;20209;-78
2021/06/08 07:48:46;;;;;;;7.55;5.20;;;24.30;78.50;;;;;;4942692;28;20753;-79
2021/06/08 07:51:16;;;;;;;6.07;5.47;;;24.40;78.40;;;;;;4946937;28;20289;-79
2021/06/08 07:53:45;;;;;;;5.65;4.78;;;24.30;78.00;;;;;;4942842;28;20306;-80
2021/06/08 07:56:13;;;;;;;5.65;5.05;;;24.40;77.50;;;;;;4941064;28;20578;-77
2021/06/08 07:58:41;;;;;;;8.75;5.30;;;24.50;77.50;;;;;;4944078;28;20286;-77
2021/06/08 08:01:10;;;;;;;10.88;5.63;;;24.70;78.10;;;;;;4941622;28;20675;-78
2021/06/08 08:03:40;;;;;;;10.43;5.63;;;24.70;77.70;;;;;;4952247;28;20261;-80
2021/06/08 08:06:10;;;;;;;10.95;6.32;;;24.60;76.80;;;;;;4935383;28;20212;-77
2021/06/08 08:08:40;;;;;;;7.45;5.72;;;24.50;76.60;;;;;;4945849;28;20361;-78
2021/06/08 08:11:10;;;;;;;7.85;5.70;;;24.40;76.50;;;;;;4955871;28;20447;-77
2021/06/08 08:13:41;;;;;;;12.23;8.00;;;24.20;76.50;;;;;;4950318;28;20215;-80
2021/06/08 08:16:11;;;;;;;6.80;5.55;;;24.30;77.40;;;;;;4957586;28;20258;-80
2021/06/08 08:18:40;;;;;;;8.80;5.97;;;24.60;76.70;;;;;;4927151;28;20212;-79
2021/06/08 08:21:10;;;;;;;10.90;5.80;;;24.70;77.20;;;;;;4947197;28;20227;-79
2021/06/08 08:23:41;;;;;;;11.82;6.70;;;24.90;77.40;;;;;;4954629;28;20627;-79
2021/06/08 08:26:11;;;;;;;5.90;5.00;;;24.90;76.70;;;;;;4960333;28;20209;-78
2021/06/08 08:28:40;;;;;;;6.10;5.50;;;24.90;76.00;;;;;;4951519;28;20553;-80
2021/06/08 08:31:10;;;;;;;7.03;5.85;;;24.80;76.00;;;;;;4950551;28;20322;-77
2021/06/08 08:33:39;;;;;;;8.60;5.75;;;24.80;76.30;;;;;;4947604;28;20559;-76
2021/06/08 08:36:07;;;;;;;10.07;6.28;;;24.90;76.50;;;;;;4950085;28;20489;-81
2021/06/08 08:38:35;;;;;;;6.60;5.68;;;25.10;76.30;;;;;;4945200;28;20200;-77
2021/06/08 08:41:05;;;;;;;9.63;6.10;;;25.30;76.00;;;;;;4945134;28;20293;-80
2021/06/08 08:43:43;;;;;;;9.77;6.40;;;25.40;75.50;;;;;;4942412;28;20215;-78
2021/06/08 08:46:12;;;;;;;9.05;5.78;;;25.50;76.00;;;;;;4942251;28;20204;-79
2021/06/08 08:48:41;;;;;;;8.40;6.18;;;25.60;75.60;;;;;;4935734;28;20270;-81
2021/06/08 08:51:15;;;;;;;9.55;6.15;;;25.60;75.00;;;;;;4942961;28;20304;-83
2021/06/08 08:53:44;;;;;;;6.72;5.25;;;25.60;75.50;;;;;;4955448;28;20852;-79
2021/06/08 08:56:29;;;;;;;9.35;5.70;;;25.40;75.20;;;;;;4948318;28;20285;-79
2021/06/08 08:59:01;;;;;;;7.28;6.30;;;25.50;74.70;;;;;;4965405;28;20537;-79
2021/06/08 09:01:30;;;;;;;7.35;5.88;;;25.60;74.70;;;;;;4948160;28;20295;-78
2021/06/08 09:04:00;;;;;;;7.47;5.78;;;25.80;74.80;;;;;;4952887;28;20745;-78
2021/06/08 09:06:28;;;;;;;7.18;5.80;;;25.90;75.00;;;;;;4948551;28;20826;-78
2021/06/08 09:08:57;;;;;;;6.65;5.72;;;26.10;75.20;;;;;;4943025;28;20314;-79
2021/06/08 09:11:31;;;;;;;6.82;6.10;;;26.50;74.80;;;;;;4947978;28;20206;-77
2021/06/08 09:14:00;;;;;;;9.00;6.25;;;26.70;74.40;;;;;;4940781;28;20522;-78
2021/06/08 09:16:28;;;;;;;8.98;6.40;;;26.80;74.10;;;;;;4945008;28;21324;-76
2021/06/08 09:18:56;;;;;;;9.25;6.32;;;27.00;74.00;;;;;;4941991;28;20740;-78
2021/06/08 09:21:27;;;;;;;9.93;6.30;;;27.10;73.40;;;;;;4937078;28;21511;-79
2021/06/08 09:24:14;;;;;;;11.50;6.50;;;27.10;73.40;;;;;;4936868;28;20617;-80
2021/06/08 09:26:52;;;;;;;9.88;5.63;;;26.70;73.00;;;;;;4938245;28;20289;-82
2021/06/08 09:29:39;;;;;;;6.07;5.47;;;26.60;73.30;;;;;;4949632;28;20451;-80
2021/06/08 09:32:25;;;;;;;6.45;5.82;;;26.40;73.00;;;;;;4955964;28;20805;-78
2021/06/08 09:34:56;;;;;;;6.35;5.78;;;26.10;73.10;;;;;;4942471;28;21122;-80
2021/06/08 09:37:37;;;;;;;7.20;5.43;;;26.00;73.80;;;;;;4939657;28;20301;-78
2021/06/08 09:40:17;;;;;;;7.15;5.25;;;26.00;73.50;;;;;;4940700;28;20456;-80
2021/06/08 09:42:49;;;;;;;7.35;5.57;;;26.10;73.70;;;;;;4942622;28;20891;-78
2021/06/08 09:45:23;;;;;;;7.20;5.30;;;26.10;73.40;;;;;;4951193;28;20219;-80
2021/06/08 09:47:59;;;;;;;9.23;5.50;;;26.20;72.70;;;;;;4949211;28;20203;-78
2021/06/08 09:50:32;;;;;;;6.00;5.10;;;26.20;72.80;;;;;;4941404;28;20230;-77
2021/06/08 09:53:18;;;;;;;6.63;5.15;;;26.10;72.80;;;;;;4940954;28;21107;-80
2021/06/08 09:55:58;;;;;;;7.10;4.65;;;26.00;72.30;;;;;;4915130;28;20371;-79
2021/06/08 09:58:29;;;;;;;5.78;5.20;;;25.90;72.60;;;;;;4940833;28;20535;-77
2021/06/08 10:01:11;;;;;;;7.07;5.10;;;26.00;73.00;;;;;;4942596;28;20303;-79
2021/06/08 10:03:41;;;;;;;6.20;5.60;;;25.80;72.60;;;;;;4953452;28;20212;-76
2021/06/08 10:06:11;;;;;;;6.60;5.10;;;25.70;73.60;;;;;;4951468;28;20204;-77
2021/06/08 10:08:49;;;;;;;7.05;5.20;;;25.90;73.10;;;;;;4948423;28;20204;-78
2021/06/08 10:11:18;;;;;;;5.65;5.10;;;26.10;73.30;;;;;;4941711;28;20243;-78
2021/06/08 10:13:49;;;;;;;6.30;4.90;;;26.50;72.50;;;;;;4947871;28;20819;-79
2021/06/08 10:16:29;;;;;;;5.88;4.68;;;26.50;72.20;;;;;;4937987;28;20776;-80
2021/06/08 10:18:58;;;;;;;5.30;4.05;;;26.50;71.30;;;;;;4947798;28;20293;-78
2021/06/08 10:21:35;;;;;;;5.15;4.43;;;26.60;71.50;;;;;;4958500;28;20921;-80
2021/06/08 10:24:05;;;;;;;4.57;4.07;;;26.60;70.90;;;;;;4979257;28;20230;-80
2021/06/08 10:26:35;;;;;;;5.18;4.70;;;26.50;69.50;;;;;;4960246;28;20493;-78
2021/06/08 10:29:09;;;;;;;5.25;4.75;;;26.60;69.80;;;;;;4967014;28;20223;-78
2021/06/08 10:31:40;;;;;;;5.00;4.50;;;26.90;70.00;;;;;;4964192;28;20246;-79
2021/06/08 10:34:28;;;;;;;7.15;4.50;;;27.00;70.40;;;;;;4947455;28;20214;-79
2021/06/08 10:36:57;;;;;;;4.53;4.13;;;26.70;71.00;;;;;;4945049;28;20623;-78
2021/06/08 10:39:25;;;;;;;6.43;4.88;;;26.60;69.90;;;;;;4939351;28;20219;-80
2021/06/08 10:41:55;;;;;;;5.47;4.38;;;26.40;70.00;;;;;;4954687;28;20951;-79
2021/06/08 10:44:26;;;;;;;5.03;4.63;;;26.20;70.70;;;;;;4945012;28;20303;-78
2021/06/08 10:46:57;;;;;;;5.75;4.90;;;26.20;69.80;;;;;;4947900;28;20540;-79
2021/06/08 10:49:36;;;;;;;7.95;4.93;;;26.20;70.60;;;;;;4944892;28;20560;-77
2021/06/08 10:52:06;;;;;;;5.93;4.80;;;26.20;69.90;;;;;;4949261;28;20200;-79
2021/06/08 10:54:38;;;;;;;6.78;4.90;;;26.20;70.70;;;;;;4949672;28;20483;-80
2021/06/08 10:57:12;;;;;;;7.63;5.07;;;26.20;70.00;;;;;;4951616;28;20461;-81
2021/06/08 10:59:43;;;;;;;5.10;4.43;;;26.00;69.50;;;;;;4954514;28;20636;-78
2021/06/08 11:02:12;;;;;;;5.70;5.13;;;25.90;68.90;;;;;;4955285;28;20415;-76
2021/06/08 11:04:52;;;;;;;5.97;4.90;;;25.90;69.40;;;;;;4950497;28;20259;-81
2021/06/08 11:07:51;;;;;;;6.43;5.30;;;26.00;68.70;;;;;;4952365;28;20764;-78
2021/06/08 11:10:58;;;;;;;5.55;4.90;;;26.10;69.20;;;;;;4942544;28;20615;-79
2021/06/08 11:13:53;;;;;;;5.82;4.80;;;26.40;68.40;;;;;;4952118;28;20212;-78
2021/06/08 11:16:34;;;;;;;5.35;4.85;;;26.60;69.00;;;;;;4953239;28;20644;-80
2021/06/08 11:19:04;;;;;;;4.53;4.05;;;26.60;69.30;;;;;;4958842;28;20472;-78
2021/06/08 11:21:33;;;;;;;7.82;4.70;;;26.60;68.90;;;;;;4964640;28;20212;-77
2021/06/08 11:24:02;;;;;;;5.32;4.68;;;26.70;68.80;;;;;;4960522;28;20406;-78
2021/06/08 11:26:48;;;;;;;6.00;5.43;;;26.50;68.90;;;;;;4950837;28;20749;-78
2021/06/08 11:29:46;;;;;;;6.30;4.88;;;26.10;69.50;;;;;;4946082;28;20848;-78
2021/06/08 11:32:43;;;;;;;5.28;4.78;;;25.80;69.60;;;;;;4943641;28;20388;-78
2021/06/08 11:35:19;;;;;;;8.32;4.85;;;25.60;69.20;;;;;;4942956;28;20656;-80
2021/06/08 11:37:57;;;;;;;5.10;4.70;;;25.40;69.00;;;;;;4936833;28;20439;-78
2021/06/08 11:40:46;;;;;;;5.65;4.63;;;25.40;69.40;;;;;;4941874;28;20215;-78
2021/06/08 11:43:45;;;;;;;6.40;5.38;;;25.30;69.80;;;;;;4933634;28;20318;-77
2021/06/08 11:46:14;;;;;;;9.05;5.80;;;25.30;70.30;;;;;;4937544;28;20578;-77
2021/06/08 11:48:44;;;;;;;6.88;6.25;;;25.20;70.30;;;;;;4941159;28;20622;-77
2021/06/08 11:51:35;;;;;;;5.95;5.15;;;25.10;69.90;;;;;;4940476;28;20237;-79
2021/06/08 11:54:09;;;;;;;5.93;5.22;;;25.20;69.60;;;;;;4942867;28;20322;-79
2021/06/08 11:56:55;;;;;;;7.47;4.80;;;25.40;69.40;;;;;;4947309;28;20749;-79
2021/06/08 11:59:27;;;;;;;5.60;4.90;;;25.60;68.70;;;;;;4945746;28;20298;-80
2021/06/08 12:01:58;;;;;;;5.45;4.95;;;25.90;69.20;;;;;;4958876;28;20500;-80
2021/06/08 12:04:29;;;;;;;8.77;5.07;;;26.10;69.40;;;;;;4948586;28;20232;-78
2021/06/08 12:07:09;;;;;;;7.45;4.55;;;26.00;68.50;;;;;;4952293;28;20475;-77
2021/06/08 12:09:45;;;;;;;5.75;4.95;;;26.20;68.70;;;;;;4930592;28;20293;-78
2021/06/08 12:12:14;;;;;;;7.63;4.70;;;26.30;68.60;;;;;;4939046;28;20570;-78
2021/06/08 12:14:51;;;;;;;6.85;4.97;;;26.50;68.90;;;;;;4942083;28;20241;-78
2021/06/08 12:17:21;;;;;;;5.72;4.88;;;26.50;68.50;;;;;;4935144;28;20845;-80
2021/06/08 12:19:59;;;;;;;5.97;4.97;;;26.50;68.20;;;;;;4951894;28;20647;-78
2021/06/08 12:22:30;;;;;;;7.55;5.65;;;26.50;67.60;;;;;;4941469;28;20522;-78
2021/06/08 12:25:01;;;;;;;7.47;5.75;;;26.10;67.90;;;;;;4949654;28;20323;-81
2021/06/08 12:27:38;;;;;;;7.32;5.72;;;26.10;68.50;;;;;;4940309;28;20216;-79
2021/06/08 12:30:08;;;;;;;7.20;5.30;;;26.30;69.10;;;;;;4955240;28;20242;-78
2021/06/08 12:32:38;;;;;;;6.25;4.82;;;26.60;69.30;;;;;;4946884;28;20303;-77
2021/06/08 12:35:20;;;;;;;5.30;4.18;;;26.90;67.80;;;;;;4946757;28;20212;-78
2021/06/08 12:37:50;;;;;;;6.13;4.38;;;27.00;66.90;;;;;;4936708;28;20761;-80
2021/06/08 12:40:20;;;;;;;6.28;4.18;;;27.10;67.00;;;;;;4944956;28;20231;-80
2021/06/08 12:42:48;;;;;;;5.25;4.53;;;27.60;66.90;;;;;;4938073;28;20549;-78
2021/06/08 12:45:21;;;;;;;5.32;4.65;;;28.00;66.40;;;;;;4939442;28;20204;-79
2021/06/08 12:47:49;;;;;;;4.60;4.20;;;28.50;66.60;;;;;;4939689;28;20681;-78
2021/06/08 12:50:27;;;;;;;5.13;4.20;;;28.80;65.10;;;;;;4945998;28;20230;-80
2021/06/08 12:53:01;;;;;;;5.72;5.15;;;28.50;65.00;;;;;;4937480;28;20312;-76
2021/06/08 12:55:31;;;;;;;6.25;4.20;;;28.10;65.00;;;;;;4944060;28;20454;-80
2021/06/08 12:58:03;;;;;;;4.55;4.15;;;27.50;63.80;;;;;;4944335;28;20235;-80
2021/06/08 13:00:33;;;;;;;6.80;4.43;;;27.30;64.80;;;;;;4948031;28;20208;-78
2021/06/08 13:03:04;;;;;;;8.23;4.30;;;27.50;63.90;;;;;;4942360;28;20595;-79
2021/06/08 13:05:37;;;;;;;4.53;4.22;;;28.10;64.40;;;;;;4944201;28;20411;-80
2021/06/08 13:08:07;;;;;;;7.25;4.93;;;28.40;63.90;;;;;;4938762;28;20582;-76